createdAt,value
2019-02-19T00:01:02.866Z,95513.66
2019-02-19T00:03:32.410Z,95513.38
2019-02-19T00:06:01.880Z,95515.46
2019-02-19T00:08:31.367Z,95515.38
2019-02-19T00:11:00.881Z,95516.90
2019-02-19T00:13:30.388Z,95519.02
2019-02-19T00:15:59.835Z,95518.36
2019-02-19T00:18:29.305Z,95521.75
2019-02-19T00:20:58.785Z,95516.59
2019-02-19T00:23:28.335Z,95515.55
2019-02-19T00:25:57.845Z,95508.38
2019-02-19T00:28:27.329Z,95507.02
2019-02-19T00:30:56.828Z,95510.02
2019-02-19T00:33:26.269Z,95499.44
2019-02-19T00:35:55.758Z,95502.14
2019-02-19T00:38:25.243Z,95504.39
2019-02-19T00:40:54.703Z,95506.66
2019-02-19T00:43:31.763Z,95505.97
2019-02-19T00:46:01.243Z,95501.01
2019-02-19T00:48:30.740Z,95500.59
2019-02-19T00:51:00.214Z,95499.97
2019-02-19T00:53:29.766Z,95491.16
2019-02-19T00:55:59.271Z,95489.41
2019-02-19T00:58:28.745Z,95492.18
2019-02-19T01:00:58.235Z,95490.14
2019-02-19T01:03:27.813Z,95491.78
2019-02-19T01:05:57.348Z,95484.39
2019-02-19T01:08:26.884Z,95486.79
2019-02-19T01:10:56.390Z,95485.57
2019-02-19T01:13:25.862Z,95481.11
2019-02-19T01:15:55.754Z,95481.84
2019-02-19T01:18:25.305Z,95479.92
2019-02-19T01:20:54.708Z,95473.52
2019-02-19T01:23:24.183Z,95470.50
2019-02-19T01:25:53.647Z,95472.08
2019-02-19T01:28:23.101Z,95469.14
2019-02-19T01:30:52.564Z,95460.84
2019-02-19T01:33:23.031Z,95464.16
2019-02-19T01:35:52.555Z,95457.77
2019-02-19T01:38:22.066Z,95455.56
2019-02-19T01:40:51.583Z,95455.88
2019-02-19T01:43:21.081Z,95448.88
2019-02-19T01:45:51.766Z,95454.09
2019-02-19T01:48:21.250Z,95448.73
2019-02-19T01:50:50.721Z,95448.26
2019-02-19T01:53:20.191Z,95446.00
2019-02-19T01:55:49.717Z,95441.91
2019-02-19T01:58:19.283Z,95435.56
2019-02-19T02:00:48.784Z,95441.81
2019-02-19T02:03:18.367Z,95436.02
2019-02-19T02:05:47.816Z,95440.14
2019-02-19T02:08:17.340Z,95439.62
2019-02-19T02:10:46.831Z,95435.57
2019-02-19T02:13:16.364Z,95431.27
2019-02-19T02:15:45.841Z,95436.59
2019-02-19T02:18:15.328Z,95436.14
2019-02-19T02:20:44.809Z,95443.88
2019-02-19T02:23:14.305Z,95444.53
2019-02-19T02:25:43.798Z,95447.09
2019-02-19T02:28:13.276Z,95441.94
2019-02-19T02:30:42.711Z,95446.17
2019-02-19T02:33:12.220Z,95443.21
2019-02-19T02:35:41.720Z,95444.98
2019-02-19T02:38:11.228Z,95440.75
2019-02-19T02:40:40.687Z,95448.83
2019-02-19T02:43:10.169Z,95443.17
2019-02-19T02:45:39.636Z,95447.74
2019-02-19T02:48:09.154Z,95445.46
2019-02-19T02:50:38.712Z,95441.42
2019-02-19T02:53:08.219Z,95442.03
2019-02-19T02:55:37.694Z,95440.53
2019-02-19T02:58:08.917Z,95444.97
2019-02-19T03:00:38.420Z,95443.78
2019-02-19T03:03:07.937Z,95444.33
2019-02-19T03:05:39.889Z,95442.46
2019-02-19T03:08:09.463Z,95439.22
2019-02-19T03:10:38.908Z,95444.95
2019-02-19T03:13:08.377Z,95445.69
2019-02-19T03:15:37.875Z,95446.13
2019-02-19T03:18:07.373Z,95442.28
2019-02-19T03:20:36.865Z,95438.47
2019-02-19T03:23:06.363Z,95438.81
2019-02-19T03:25:35.847Z,95439.66
2019-02-19T03:28:05.335Z,95443.56
2019-02-19T03:30:34.812Z,95442.45
2019-02-19T03:33:04.283Z,95442.27
2019-02-19T03:35:33.796Z,95442.06
2019-02-19T03:38:03.293Z,95445.13
2019-02-19T03:40:32.775Z,95444.86
2019-02-19T03:43:02.271Z,95446.63
2019-02-19T03:45:31.790Z,95444.04
2019-02-19T03:48:01.293Z,95445.61
2019-02-19T03:50:30.851Z,95438.17
2019-02-19T03:53:00.410Z,95440.42
2019-02-19T03:55:29.892Z,95439.56
2019-02-19T03:57:59.349Z,95442.69
2019-02-19T04:00:28.826Z,95444.77
2019-02-19T04:02:58.303Z,95437.60
2019-02-19T04:05:27.786Z,95433.23
2019-02-19T04:07:57.314Z,95442.17
2019-02-19T04:10:26.809Z,95438.42
2019-02-19T04:12:58.272Z,95436.09
2019-02-19T04:15:27.712Z,95437.75
2019-02-19T04:17:57.212Z,95439.86
2019-02-19T04:20:26.678Z,95440.20
2019-02-19T04:22:56.143Z,95439.31
2019-02-19T04:25:25.621Z,95436.80
2019-02-19T04:27:55.063Z,95439.12
2019-02-19T04:30:24.566Z,95445.43
2019-02-19T04:32:54.064Z,95444.23
2019-02-19T04:35:23.549Z,95443.97
2019-02-19T04:37:53.029Z,95441.25
2019-02-19T04:40:22.460Z,95441.25
2019-02-19T04:42:51.950Z,95446.00
2019-02-19T04:45:21.426Z,95451.88
2019-02-19T04:47:50.941Z,95451.75
2019-02-19T04:50:20.493Z,95454.39
2019-02-19T04:52:49.981Z,95453.09
2019-02-19T04:55:19.479Z,95449.89
2019-02-19T04:57:48.995Z,95449.68
2019-02-19T05:00:18.502Z,95452.83
2019-02-19T05:02:47.967Z,95452.91
2019-02-19T05:05:17.453Z,95456.92
2019-02-19T05:07:46.941Z,95455.28
2019-02-19T05:10:16.409Z,95458.13
2019-02-19T05:12:45.938Z,95454.93
2019-02-19T05:15:15.418Z,95456.65
2019-02-19T05:17:44.903Z,95464.42
2019-02-19T05:20:14.406Z,95460.80
2019-02-19T05:22:43.881Z,95468.23
2019-02-19T05:25:13.384Z,95466.58
2019-02-19T05:27:42.917Z,95465.89
2019-02-19T05:30:12.536Z,95462.91
2019-02-19T05:32:42.013Z,95470.60
2019-02-19T05:35:11.465Z,95470.69
2019-02-19T05:37:42.153Z,95478.98
2019-02-19T05:40:11.800Z,95479.62
2019-02-19T05:42:41.317Z,95473.48
2019-02-19T05:45:11.008Z,95478.84
2019-02-19T05:47:40.562Z,95484.50
2019-02-19T05:50:10.055Z,95487.04
2019-02-19T05:52:39.595Z,95492.09
2019-02-19T05:55:09.215Z,95499.09
2019-02-19T05:57:38.692Z,95495.08
2019-02-19T06:00:09.274Z,95500.86
2019-02-19T06:02:38.882Z,95495.69
2019-02-19T06:05:09.462Z,95498.84
2019-02-19T06:07:38.950Z,95501.08
2019-02-19T06:10:09.889Z,95497.53
2019-02-19T06:12:39.363Z,95498.97
2019-02-19T06:15:09.164Z,95501.29
2019-02-19T06:17:38.629Z,95502.03
2019-02-19T06:20:08.301Z,95504.27
2019-02-19T06:22:37.766Z,95510.36
2019-02-19T06:25:08.259Z,95508.84
2019-02-19T06:27:37.766Z,95510.47
2019-02-19T06:30:09.851Z,95509.30
2019-02-19T06:32:39.359Z,95509.68
2019-02-19T06:35:09.041Z,95513.55
2019-02-19T06:37:38.555Z,95513.19
2019-02-19T06:40:09.635Z,95508.80
2019-02-19T06:42:39.171Z,95506.61
2019-02-19T06:45:08.906Z,95508.36
2019-02-19T06:47:38.388Z,95505.19
2019-02-19T06:50:07.900Z,95503.98
2019-02-19T06:52:37.492Z,95501.83
2019-02-19T06:55:07.356Z,95506.50
2019-02-19T06:57:36.827Z,95502.13
2019-02-19T07:00:06.643Z,95501.38
2019-02-19T07:02:55.032Z,95501.54
2019-02-19T07:05:25.329Z,95505.48
2019-02-19T07:07:54.813Z,95508.03
2019-02-19T07:10:24.285Z,95502.03
2019-02-19T07:12:53.791Z,95502.59
2019-02-19T07:15:23.295Z,95499.94
2019-02-19T07:17:52.769Z,95506.56
2019-02-19T07:20:22.294Z,95503.23
2019-02-19T07:22:51.797Z,95509.13
2019-02-19T07:25:21.310Z,95497.34
2019-02-19T07:27:50.791Z,95502.22
2019-02-19T07:30:20.318Z,95495.58
2019-02-19T07:32:49.782Z,95498.10
2019-02-19T07:35:19.322Z,95498.70
2019-02-19T07:37:48.824Z,95498.76
2019-02-19T07:40:18.290Z,95501.75
2019-02-19T07:42:47.758Z,95495.45
2019-02-19T07:45:17.244Z,95496.80
2019-02-19T07:47:46.746Z,95497.97
2019-02-19T07:50:16.241Z,95502.41
2019-02-19T07:52:45.741Z,95496.91
2019-02-19T07:55:16.197Z,95492.89
2019-02-19T07:57:45.673Z,95492.64
2019-02-19T08:00:15.235Z,95496.45
2019-02-19T08:02:44.683Z,95489.16
2019-02-19T08:05:19.886Z,95492.42
2019-02-19T08:07:49.410Z,95488.22
2019-02-19T08:10:18.994Z,95483.05
2019-02-19T08:12:48.639Z,95486.36
2019-02-19T08:15:18.188Z,95482.48
2019-02-19T08:17:47.713Z,95482.69
2019-02-19T08:20:17.229Z,95474.11
2019-02-19T08:22:46.702Z,95474.45
2019-02-19T08:25:16.177Z,95478.53
2019-02-19T08:27:45.689Z,95484.25
2019-02-19T08:30:15.193Z,95480.33
2019-02-19T08:32:44.716Z,95485.72
2019-02-19T08:35:14.210Z,95482.97
2019-02-19T08:37:45.827Z,95484.12
2019-02-19T08:40:15.321Z,95488.22
2019-02-19T08:42:44.848Z,95481.70
2019-02-19T08:45:14.401Z,95477.80
2019-02-19T08:47:43.961Z,95478.28
2019-02-19T08:50:13.468Z,95483.33
2019-02-19T08:52:43.127Z,95483.50
2019-02-19T08:55:12.771Z,95486.27
2019-02-19T08:57:42.418Z,95479.73
2019-02-19T09:00:12.156Z,95483.64
2019-02-19T09:02:41.739Z,95483.95
2019-02-19T09:05:11.213Z,95476.72
2019-02-19T09:07:40.820Z,95478.19
2019-02-19T09:10:10.580Z,95470.16
2019-02-19T09:12:40.099Z,95473.41
2019-02-19T09:15:11.241Z,95461.81
2019-02-19T09:17:40.862Z,95461.73
2019-02-19T09:20:10.499Z,95463.33
2019-02-19T09:22:40.028Z,95459.20
2019-02-19T09:25:09.657Z,95458.70
2019-02-19T09:30:26.301Z,95455.22
2019-02-19T09:32:55.805Z,95458.10
2019-02-19T09:35:25.392Z,95454.45
2019-02-19T09:37:54.883Z,95455.59
2019-02-19T09:40:24.743Z,95447.62
2019-02-19T09:42:54.214Z,95450.66
2019-02-19T09:45:25.366Z,95443.08
2019-02-19T09:48:00.951Z,95440.54
2019-02-19T09:50:26.139Z,95442.91
2019-02-19T09:52:59.907Z,95438.91
2019-02-19T09:55:26.952Z,95436.85
2019-02-19T09:57:56.439Z,95429.23
2019-02-19T10:00:26.044Z,95426.77
2019-02-19T10:02:55.486Z,95421.72
2019-02-19T10:05:24.991Z,95422.00
2019-02-19T10:07:55.869Z,95419.00
2019-02-19T10:10:25.632Z,95412.87
2019-02-19T10:12:55.130Z,95405.16
2019-02-19T10:15:24.644Z,95393.01
2019-02-19T10:17:54.162Z,95389.50
2019-02-19T10:20:23.661Z,95384.05
2019-02-19T10:22:53.184Z,95384.25
2019-02-19T10:25:22.674Z,95384.50
2019-02-19T10:27:52.147Z,95378.45
2019-02-19T10:30:21.610Z,95374.54
2019-02-19T10:32:51.078Z,95373.42
2019-02-19T10:35:20.598Z,95369.54
2019-02-19T10:37:51.716Z,95360.13
2019-02-19T10:40:21.429Z,95357.28
2019-02-19T10:42:50.909Z,95351.34
2019-02-19T10:45:20.493Z,95353.34
2019-02-19T10:47:49.977Z,95346.77
2019-02-19T10:50:19.482Z,95346.09
2019-02-19T10:52:48.989Z,95336.31
2019-02-19T10:55:18.544Z,95326.63
2019-02-19T10:57:48.031Z,95327.91
2019-02-19T11:00:18.187Z,95323.13
2019-02-19T11:02:47.713Z,95314.19
2019-02-19T11:05:17.192Z,95311.13
2019-02-19T11:07:46.701Z,95306.64
2019-02-19T11:10:16.205Z,95304.52
2019-02-19T11:12:45.678Z,95304.76
2019-02-19T11:15:17.311Z,95297.80
2019-02-19T11:17:46.655Z,95295.18
2019-02-19T11:20:16.230Z,95291.81
2019-02-19T11:22:45.738Z,95285.59
2019-02-19T11:25:15.353Z,95280.55
2019-02-19T11:27:44.842Z,95278.55
2019-02-19T11:30:16.125Z,95276.98
2019-02-19T11:32:45.647Z,95275.69
2019-02-19T11:35:15.160Z,95276.31
2019-02-19T11:37:44.623Z,95269.13
2019-02-19T11:40:14.115Z,95264.80
2019-02-19T11:42:43.588Z,95258.56
2019-02-19T11:45:14.053Z,95253.41
2019-02-19T11:47:43.571Z,95249.35
2019-02-19T11:50:13.779Z,95248.12
2019-02-19T11:52:43.296Z,95249.16
2019-02-19T11:55:13.351Z,95242.08
2019-02-19T11:57:42.852Z,95237.71
2019-02-19T12:00:16.184Z,95233.87
2019-02-19T12:02:45.698Z,95230.83
2019-02-19T12:05:15.187Z,95231.25
2019-02-19T12:07:44.686Z,95225.36
2019-02-19T12:10:15.920Z,95221.13
2019-02-19T12:12:46.593Z,95217.48
2019-02-19T12:15:16.353Z,95213.11
2019-02-19T12:17:45.874Z,95216.59
2019-02-19T12:20:15.657Z,95204.83
2019-02-19T12:22:45.116Z,95209.36
2019-02-19T12:25:14.632Z,95208.25
2019-02-19T12:27:44.187Z,95197.83
2019-02-19T12:30:14.375Z,95196.36
2019-02-19T12:32:43.995Z,95190.08
2019-02-19T12:35:13.741Z,95190.98
2019-02-19T12:37:43.211Z,95190.15
2019-02-19T12:40:12.710Z,95180.62
2019-02-19T12:42:42.184Z,95183.26
2019-02-19T12:45:12.096Z,95172.72
2019-02-19T12:47:41.631Z,95171.41
2019-02-19T12:50:12.371Z,95167.01
2019-02-19T12:52:41.901Z,95167.67
2019-02-19T12:55:13.882Z,95161.34
2019-02-19T12:57:43.409Z,95163.94
2019-02-19T13:00:14.655Z,95163.02
2019-02-19T13:02:44.329Z,95160.55
2019-02-19T13:05:16.413Z,95155.63
2019-02-19T13:07:49.174Z,95153.49
2019-02-19T13:10:18.646Z,95150.97
2019-02-19T13:12:49.116Z,95149.42
2019-02-19T13:15:18.741Z,95155.97
2019-02-19T13:17:48.219Z,95147.64
2019-02-19T13:20:17.721Z,95150.18
2019-02-19T13:22:47.260Z,95149.38
2019-02-19T13:25:16.893Z,95144.61
2019-02-19T13:27:46.455Z,95147.84
2019-02-19T13:30:16.464Z,95144.77
2019-02-19T13:32:45.953Z,95142.01
2019-02-19T13:35:15.684Z,95136.83
2019-02-19T13:37:45.198Z,95132.56
2019-02-19T13:40:15.057Z,95136.08
2019-02-19T13:42:44.571Z,95133.23
2019-02-19T13:45:14.657Z,95132.99
2019-02-19T13:47:44.170Z,95133.83
2019-02-19T13:50:16.194Z,95126.73
2019-02-19T13:53:03.208Z,95124.09
2019-02-19T13:55:35.687Z,95122.55
2019-02-19T13:58:05.207Z,95123.97
2019-02-19T14:00:37.438Z,95126.45
2019-02-19T14:03:06.965Z,95118.83
2019-02-19T14:05:36.490Z,95121.86
2019-02-19T14:08:14.320Z,95123.32
2019-02-19T14:10:37.237Z,95117.02
2019-02-19T14:13:08.848Z,95118.04
2019-02-19T14:15:57.246Z,95116.37
2019-02-19T14:18:45.895Z,95111.39
2019-02-19T14:21:32.914Z,95117.02
2019-02-19T14:24:27.450Z,95115.41
2019-02-19T14:27:31.319Z,95117.23
2019-02-19T14:30:25.693Z,95114.08
2019-02-19T14:33:32.269Z,95111.53
2019-02-19T14:36:12.750Z,95100.32
2019-02-19T14:39:04.263Z,95102.19
2019-02-19T14:41:51.343Z,95103.16
2019-02-19T14:44:52.088Z,95104.02
2019-02-19T14:47:46.599Z,95097.66
2019-02-19T14:50:47.154Z,95095.59
2019-02-19T14:53:35.617Z,95098.23
2019-02-19T14:56:23.034Z,95096.64
2019-02-19T14:59:14.579Z,95091.87
2019-02-19T15:02:04.986Z,95097.58
2019-02-19T15:04:53.511Z,95091.91
2019-02-19T15:07:48.189Z,95095.52
2019-02-19T15:10:39.870Z,95092.13
2019-02-19T15:13:28.303Z,95095.06
2019-02-19T15:16:07.697Z,95089.43
2019-02-19T15:18:54.996Z,95091.98
2019-02-19T15:21:41.763Z,95093.66
2019-02-19T15:24:45.311Z,95092.05
2019-02-19T15:27:30.405Z,95093.48
2019-02-19T15:30:21.599Z,95095.86
2019-02-19T15:33:08.896Z,95087.85
2019-02-19T15:36:07.254Z,95088.06
2019-02-19T15:38:55.667Z,95091.05
2019-02-19T15:41:59.816Z,95090.25
2019-02-19T15:44:51.059Z,95095.38
2019-02-19T15:47:51.798Z,95095.03
2019-02-19T15:50:40.278Z,95095.25
2019-02-19T15:53:30.606Z,95086.34
2019-02-19T15:56:24.722Z,95085.78
2019-02-19T15:59:09.290Z,95094.34
2019-02-19T16:02:00.738Z,95090.95
2019-02-19T16:04:49.144Z,95094.66
2019-02-19T16:07:28.484Z,95092.16
2019-02-19T16:10:16.910Z,95095.02
2019-02-19T16:12:58.199Z,95089.90
2019-02-19T16:15:45.554Z,95093.05
2019-02-19T16:18:34.143Z,95088.33
2019-02-19T16:21:22.647Z,95102.98
2019-02-19T16:24:16.894Z,95092.96
2019-02-19T16:27:08.157Z,95098.11
2019-02-19T16:29:48.611Z,95102.33
2019-02-19T16:32:43.328Z,95100.20
2019-02-19T16:35:31.805Z,95100.36
2019-02-19T16:38:19.374Z,95102.78
2019-02-19T16:41:04.941Z,95107.37
2019-02-19T16:43:59.309Z,95110.30
2019-02-19T16:46:50.747Z,95108.86
2019-02-19T16:49:45.087Z,95102.92
2019-02-19T16:52:30.274Z,95104.75
2019-02-19T16:55:05.253Z,95097.80
2019-02-19T16:57:56.700Z,95099.36
2019-02-19T17:00:51.536Z,95099.19
2019-02-19T17:03:31.345Z,95102.02
2019-02-19T17:06:28.585Z,95102.31
2019-02-19T17:09:17.007Z,95101.63
2019-02-19T17:12:14.690Z,95101.01
2019-02-19T17:14:53.724Z,95104.61
2019-02-19T17:17:44.985Z,95099.19
2019-02-19T17:20:33.479Z,95102.98
2019-02-19T17:23:20.822Z,95101.75
2019-02-19T17:26:08.208Z,95101.98
2019-02-19T17:28:57.705Z,95096.56
2019-02-19T17:31:46.135Z,95100.01
2019-02-19T17:34:46.563Z,95099.23
2019-02-19T17:37:34.995Z,95095.38
2019-02-19T17:40:13.473Z,95110.70
2019-02-19T17:43:00.744Z,95111.36
2019-02-19T17:45:49.182Z,95120.00
2019-02-19T17:48:33.994Z,95130.13
2019-02-19T17:51:28.779Z,95121.73
2019-02-19T17:54:29.248Z,95117.67
2019-02-19T17:57:20.770Z,95111.67
2019-02-19T18:00:01.741Z,95116.22
2019-02-19T18:02:49.324Z,95123.85
2019-02-19T18:05:25.736Z,95114.94
2019-02-19T18:08:08.131Z,95120.33
2019-02-19T18:10:56.572Z,95127.45
2019-02-19T18:13:32.881Z,95121.63
2019-02-19T18:16:22.764Z,95124.31
2019-02-19T18:18:52.879Z,95120.34
2019-02-19T18:21:22.435Z,95123.27
2019-02-19T18:23:54.748Z,95124.73
2019-02-19T18:26:24.329Z,95143.59
2019-02-19T18:28:57.419Z,95135.91
2019-02-19T18:31:28.014Z,95141.16
2019-02-19T18:33:57.571Z,95144.67
2019-02-19T18:36:30.092Z,95140.22
2019-02-19T18:38:59.583Z,95133.25
2019-02-19T18:41:29.194Z,95136.92
2019-02-19T18:44:01.778Z,95137.45
2019-02-19T18:46:31.342Z,95141.27
2019-02-19T18:49:00.877Z,95138.97
2019-02-19T18:51:30.422Z,95142.78
2019-02-19T18:53:59.950Z,95136.66
2019-02-19T18:56:29.485Z,95135.22
2019-02-19T18:58:59.089Z,95137.34
2019-02-19T19:01:28.591Z,95139.50
2019-02-19T19:03:58.483Z,95143.19
2019-02-19T19:06:28.183Z,95140.25
2019-02-19T19:08:57.995Z,95151.47
2019-02-19T19:11:27.495Z,95146.23
2019-02-19T19:13:57.100Z,95152.50
2019-02-19T19:16:26.740Z,95151.83
2019-02-19T19:18:56.312Z,95149.35
2019-02-19T19:21:25.868Z,95154.09
2019-02-19T19:23:55.451Z,95158.69
2019-02-19T19:26:25.022Z,95155.75
2019-02-19T19:28:54.514Z,95160.84
2019-02-19T19:31:32.967Z,95156.43
2019-02-19T19:33:55.313Z,95162.62
2019-02-19T19:36:24.825Z,95167.95
2019-02-19T19:38:54.321Z,95173.30
2019-02-19T19:41:23.925Z,95174.78
2019-02-19T19:43:53.418Z,95174.99
2019-02-19T19:46:22.900Z,95177.61
2019-02-19T19:48:52.432Z,95174.18
2019-02-19T19:51:21.963Z,95173.30
2019-02-19T19:53:51.520Z,95169.92
2019-02-19T19:56:21.123Z,95175.54
2019-02-19T19:58:50.660Z,95174.80
2019-02-19T20:01:20.249Z,95176.73
2019-02-19T20:03:49.793Z,95180.05
2019-02-19T20:06:19.319Z,95190.75
2019-02-19T20:08:48.871Z,95187.84
2019-02-19T20:11:18.429Z,95184.64
2019-02-19T20:13:49.101Z,95187.84
2019-02-19T20:16:18.552Z,95187.17
2019-02-19T20:18:48.151Z,95192.08
2019-02-19T20:21:26.225Z,95190.83
2019-02-19T20:23:50.105Z,95188.30
2019-02-19T20:26:19.590Z,95190.30
2019-02-19T20:28:49.233Z,95185.53
2019-02-19T20:31:18.834Z,95189.50
2019-02-19T20:33:48.405Z,95191.05
2019-02-19T20:36:18.442Z,95183.77
2019-02-19T20:38:47.983Z,95188.69
2019-02-19T20:41:17.552Z,95185.17
2019-02-19T20:43:47.064Z,95191.40
2019-02-19T20:46:16.671Z,95192.70
2019-02-19T20:48:46.462Z,95189.65
2019-02-19T20:51:15.967Z,95186.07
2019-02-19T20:53:46.370Z,95183.14
2019-02-19T20:56:15.867Z,95184.66
2019-02-19T20:58:45.428Z,95186.52
2019-02-19T21:01:15.132Z,95183.70
2019-02-19T21:03:44.734Z,95181.78
2019-02-19T21:06:14.256Z,95185.92
2019-02-19T21:08:43.939Z,95187.58
2019-02-19T21:11:13.586Z,95180.62
2019-02-19T21:13:43.115Z,95183.55
2019-02-19T21:16:12.759Z,95183.27
2019-02-19T21:18:42.359Z,95180.06
2019-02-19T21:21:12.018Z,95179.13
2019-02-19T21:23:41.627Z,95182.19
2019-02-19T21:26:11.260Z,95181.09
2019-02-19T21:28:40.927Z,95179.22
2019-02-19T21:31:10.560Z,95185.73
2019-02-19T21:33:40.182Z,95180.52
2019-02-19T21:36:09.772Z,95186.91
2019-02-19T21:38:39.393Z,95182.52
2019-02-19T21:41:09.034Z,95185.97
2019-02-19T21:43:38.731Z,95183.03
2019-02-19T21:46:08.338Z,95183.23
2019-02-19T21:48:38.066Z,95187.62
2019-02-19T21:51:07.706Z,95193.22
2019-02-19T21:53:37.423Z,95194.68
2019-02-19T21:56:07.323Z,95193.38
2019-02-19T21:58:36.944Z,95190.62
2019-02-19T22:01:06.745Z,95195.17
2019-02-19T22:03:36.337Z,95189.66
2019-02-19T22:06:05.937Z,95189.98
2019-02-19T22:08:35.478Z,95193.43
2019-02-19T22:11:05.071Z,95187.88
2019-02-19T22:13:34.677Z,95188.22
2019-02-19T22:16:04.328Z,95192.79
2019-02-19T22:18:34.052Z,95185.95
2019-02-19T22:21:09.122Z,95190.98
2019-02-19T22:23:38.641Z,95196.52
2019-02-19T22:26:08.284Z,95194.09
2019-02-19T22:28:37.900Z,95191.13
2019-02-19T22:31:07.496Z,95188.67
2019-02-19T22:33:37.134Z,95189.34
2019-02-19T22:36:06.773Z,95190.31
2019-02-19T22:38:36.355Z,95191.45
2019-02-19T22:41:05.933Z,95190.00
2019-02-19T22:43:35.517Z,95193.09
2019-02-19T22:46:05.061Z,95190.80
2019-02-19T22:48:34.669Z,95190.16
2019-02-19T22:51:04.279Z,95192.42
2019-02-19T22:53:55.884Z,95191.95
2019-02-19T22:56:28.519Z,95192.44
2019-02-19T22:58:58.142Z,95196.67
2019-02-19T23:01:47.461Z,95194.23
2019-02-19T23:04:17.005Z,95189.50
2019-02-19T23:06:46.631Z,95197.18
2019-02-19T23:09:16.204Z,95201.23
2019-02-19T23:11:45.801Z,95191.47
2019-02-19T23:14:15.372Z,95191.81
2019-02-19T23:16:44.969Z,95192.13
2019-02-19T23:19:14.554Z,95192.95
2019-02-19T23:21:44.135Z,95203.55
2019-02-19T23:24:13.667Z,95204.68
2019-02-19T23:26:43.518Z,95205.47
2019-02-19T23:29:13.073Z,95208.57
2019-02-19T23:31:42.577Z,95204.84
2019-02-19T23:34:12.170Z,95202.23
2019-02-19T23:36:46.166Z,95210.69
2019-02-19T23:39:15.746Z,95210.02
2019-02-19T23:41:45.336Z,95209.70
2019-02-19T23:44:14.891Z,95211.33
2019-02-19T23:46:44.390Z,95208.39
2019-02-19T23:49:13.937Z,95211.15
2019-02-19T23:51:43.520Z,95216.22
2019-02-19T23:54:13.038Z,95213.60
2019-02-19T23:56:42.674Z,95215.02
2019-02-19T23:59:12.275Z,95217.91
